Flight Track Log - Related Links

Times and Time Zones

All times are in EDT time to prevent confusion due to time zone crossing. See the ERR781 flight status page for this flight to view local times or setup timezone preferences in your user account.

Time Position Orientation Groundspeed Altitude Reporting Facility
EDT Latitude Longitude Course Direction KTS MPH feet Rate Location/Type
Fri 05:24:50 PM 70.1500 -148.5167 177° South 170 196 2,200  Level Anchorage Center
Fri 05:25:50 PM 70.1000 -148.5167 180° South 160 184 3,900 1,700 Climbing Anchorage Center
Fri 05:26:50 PM 70.0500 -148.5167 180° South 170 196 5,600 1,537 Climbing Anchorage Center
Fri 05:27:51 PM 70.0000 -148.5000 173° South 150 173 7,000 1,438 Climbing Anchorage Center
Fri 05:28:51 PM 69.9667 -148.5000 180° South 160 184 8,500 1,450 Climbing Anchorage Center
Fri 05:29:51 PM 69.9167 -148.4833 173° South 160 184 9,900 1,350 Climbing Anchorage Center
Fri 05:30:00 PM 69.8558 -148.4182 177° South  Level Estimated
Fri 05:30:51 PM 69.8833 -148.4833 180° South 160 184 11,200  Level Anchorage Center
Fri 05:31:51 PM 69.8333 -148.4833 180° South 170 196 12,600 1,400 Climbing Anchorage Center
Fri 05:32:51 PM 69.7833 -148.4667 173° South 160 184 14,000 1,350 Climbing Anchorage Center
Fri 05:33:51 PM 69.7500 -148.4667 180° South 160 184 15,300 1,289 Climbing Anchorage Center
Fri 05:34:52 PM 69.7000 -148.4500 173° South 150 173 16,600 1,100 Climbing Anchorage Center
Fri 05:35:51 PM 69.6667 -148.4500 180° South 160 184 17,500 1,160 Climbing Anchorage Center
Fri 05:36:51 PM 69.6167 -148.4333 173° South 150 173 18,900 1,190 Climbing Anchorage Center
Fri 05:37:52 PM 69.5667 -148.4333 180° South 190 219 19,900 1,041 Climbing Anchorage Center
Fri 05:38:52 PM 69.5333 -148.4333 180° South 150 173 21,000 1,100 Climbing Anchorage Center
Fri 05:39:52 PM 69.5000 -148.4167 170° South 140 161 22,100 1,000 Climbing Anchorage Center
Fri 05:40:52 PM 69.4500 -148.4167 180° South 150 173 23,000 450 Climbing Anchorage Center
Fri 05:41:52 PM 69.4167 -148.4167 180° South 160 184 23,000  Level Anchorage Center
Fri 05:42:52 PM 69.3667 -148.4000 173° South 200 230 23,000  Level Anchorage Center
Fri 05:43:52 PM 69.3000 -148.4000 180° South 200 230 23,000  Level Anchorage Center
Fri 05:44:52 PM 69.2500 -148.3833 173° South 200 230 23,000  Level Anchorage Center
Fri 05:45:52 PM 69.2000 -148.3833 180° South 200 230 23,000  Level Anchorage Center
Fri 05:46:53 PM 69.1333 -148.3667 175° South 200 230 23,000  Level Anchorage Center
Fri 05:47:53 PM 69.0833 -148.3667 180° South 200 230 23,000  Level Anchorage Center
Fri 05:48:53 PM 69.0333 -148.3500 173° South 200 230 23,000  Level Anchorage Center
Fri 05:49:53 PM 68.9667 -148.3500 180° South 200 230 23,000  Level Anchorage Center
Fri 05:50:53 PM 68.9167 -148.3333 173° South 200 230 23,000  Level Anchorage Center
Fri 05:51:53 PM 68.8667 -148.3167 173° South 200 230 23,000  Level Anchorage Center
Fri 05:52:53 PM 68.8167 -148.3167 180° South 200 230 23,000  Level Anchorage Center
Fri 05:53:53 PM 68.7500 -148.3167 180° South 200 230 23,000  Level Anchorage Center
Fri 05:54:53 PM 68.7000 -148.3167 180° South 190 219 23,000  Level Anchorage Center
Fri 05:55:54 PM 68.6333 -148.3000 175° South 230 265 23,000  Level Anchorage Center
Fri 05:56:54 PM 68.5833 -148.3000 180° South 200 230 23,000  Level Anchorage Center
Fri 05:57:54 PM 68.5333 -148.2833 173° South 210 242 23,000  Level Anchorage Center
Fri 05:58:54 PM 68.4833 -148.2833 180° South 210 242 23,000  Level Anchorage Center
Fri 05:59:54 PM 68.4333 -148.2667 173° South 200 230 23,000  Level Anchorage Center
Fri 06:00:54 PM 68.3667 -148.2667 180° South 200 230 23,000  Level Anchorage Center
Fri 06:01:54 PM 68.3167 -148.2500 173° South 200 230 23,000  Level Anchorage Center
Fri 06:02:54 PM 68.2500 -148.2500 180° South 200 230 23,000  Level Anchorage Center
Fri 06:03:54 PM 68.2000 -148.2500 180° South 200 230 23,000  Level Anchorage Center
Fri 06:04:54 PM 68.1333 -148.2333 175° South 200 230 23,000  Level Anchorage Center
Fri 06:05:55 PM 68.0833 -148.2167 173° South 200 230 23,000  Level Anchorage Center
Fri 06:06:54 PM 68.0333 -148.2167 180° South 220 253 23,000  Level Anchorage Center
Fri 06:07:55 PM 67.9667 -148.2000 175° South 210 242 23,000  Level Anchorage Center
Fri 06:08:55 PM 67.9167 -148.2000 180° South 200 230 23,000  Level Anchorage Center
Fri 06:09:55 PM 67.8500 -148.2000 180° South 210 242 23,000  Level Anchorage Center
Fri 06:10:55 PM 67.8000 -148.1833 173° South 210 242 23,000  Level Anchorage Center
Fri 06:11:55 PM 67.7500 -148.1833 180° South 200 230 23,000  Level Anchorage Center
Fri 06:12:55 PM 67.6833 -148.1833 180° South 210 242 23,000  Level Anchorage Center
Fri 06:13:55 PM 67.6333 -148.1667 173° South 210 242 23,000  Level Anchorage Center
Fri 06:14:55 PM 67.5667 -148.1667 180° South 220 253 23,000  Level Anchorage Center
Fri 06:15:55 PM 67.5167 -148.1500 173° South 220 253 23,000  Level Anchorage Center
Fri 06:16:56 PM 67.4667 -148.1500 180° South 180 207 23,000  Level Anchorage Center
Fri 06:17:55 PM 67.4000 -148.1333 175° South 190 219 23,000  Level Anchorage Center
Fri 06:18:55 PM 67.3500 -148.1333 180° South 200 230 23,000  Level Anchorage Center
Fri 06:19:56 PM 67.2833 -148.1167 174° South 220 253 23,000  Level Anchorage Center
Fri 06:20:56 PM 67.2333 -148.1167 180° South 200 230 23,000  Level Anchorage Center
Fri 06:21:56 PM 67.1667 -148.1167 180° South 220 253 23,000  Level Anchorage Center
Fri 06:22:56 PM 67.1167 -148.1000 173° South 200 230 23,000  Level Anchorage Center
Fri 06:23:56 PM 67.0667 -148.1000 180° South 210 242 23,000  Level Anchorage Center
Fri 06:24:56 PM 67.0000 -148.0833 174° South 200 230 23,000  Level Anchorage Center
Fri 06:25:56 PM 66.9500 -148.0833 180° South 210 242 23,000  Level Anchorage Center
Fri 06:26:56 PM 66.8833 -148.0833 180° South 210 242 23,000  Level Anchorage Center
Fri 06:27:57 PM 66.8333 -148.0667 173° South 200 230 23,000  Level Anchorage Center
Fri 06:28:57 PM 66.7833 -148.0667 180° South 210 242 23,000  Level Anchorage Center
Fri 06:29:57 PM 66.7167 -148.0500 174° South 190 219 23,000  Level Anchorage Center
Fri 06:30:57 PM 66.6667 -148.0500 180° South 200 230 23,000  Level Anchorage Center
Fri 06:31:57 PM 66.6167 -148.0500 180° South 200 230 23,000  Level Anchorage Center
Fri 06:32:57 PM 66.5500 -148.0333 174° South 210 242 23,000  Level Anchorage Center
Fri 06:33:57 PM 66.5000 -148.0333 180° South 200 230 23,000  Level Anchorage Center
Fri 06:34:58 PM 66.4333 -148.0333 180° South 200 230 23,000  Level Anchorage Center
Fri 06:35:57 PM 66.3833 -148.0167 172° South 200 230 23,000  Level Anchorage Center
Fri 06:36:58 PM 66.3333 -148.0167 180° South 200 230 23,000  Level Anchorage Center
Fri 06:37:58 PM 66.2667 -148.0167 180° South 200 230 23,000  Level Anchorage Center
Fri 06:38:58 PM 66.2167 -148.0000 172° South 210 242 23,000  Level Anchorage Center
Fri 06:39:58 PM 66.1500 -148.0000 180° South 210 242 23,000  Level Anchorage Center
Fri 06:40:58 PM 66.1000 -147.9833 172° South 210 242 23,000  Level Anchorage Center
Fri 06:41:58 PM 66.0500 -147.9667 172° South 200 230 23,000  Level Anchorage Center
Fri 06:42:58 PM 65.9833 -147.9667 180° South 200 230 23,000  Level Anchorage Center
Fri 06:43:58 PM 65.9333 -147.9667 180° South 210 242 23,000 -550 Level Anchorage Center
Fri 06:44:58 PM 65.8833 -147.9500 172° South 220 253 21,900 -1,240 Descending Anchorage Center
Fri 06:45:59 PM 65.8167 -147.9500 180° South 240 276 20,500 -1,339 Descending Anchorage Center
Fri 06:46:59 PM 65.7500 -147.9500 180° South 240 276 19,200 -1,500 Descending Anchorage Center
Fri 06:47:59 PM 65.6833 -147.9333 174° South 230 265 17,500 -1,500 Descending Anchorage Center
Fri 06:48:59 PM 65.6167 -147.9333 180° South 230 265 16,200 -1,300 Descending Anchorage Center
Fri 06:49:59 PM 65.5500 -147.9333 180° South 240 276 14,900 -1,300 Descending Anchorage Center
Fri 06:50:59 PM 65.4833 -147.9167 174° South 250 288 13,600 -1,300 Descending Anchorage Center
Fri 06:52:00 PM 65.4260 -147.9023 174° South  Level FlightAware Approximate
Fri 06:59:00 PM 65.0294 -147.8667 180° South  Level FlightAware Approximate
Fri 07:00:00 PM 64.9727 -147.8667 180° South  Level FlightAware Approximate
Fri 07:01:00 PM 64.9161 -147.8599 175° South  Level FlightAware Approximate
Fri 07:02:00 PM 64.8596 -147.8500 180° South  Level FlightAware Approximate
Fri 07:03:00 PM 64.8151 -147.8564 180° South  Level Estimated
Fri 07:04:00 PM 64.8151 -147.8564 180° South  Level Estimated
Fri 07:05:00 PM 64.8151 -147.8564 180° South  Level Estimated
Fri 07:06:00 PM 64.8151 -147.8564 180° South  Level Estimated
Fri 07:07:00 PM 64.8151 -147.8564 180° South  Level Estimated
Fri 07:08:00 PM 64.8151 -147.8564 180° South  Level Estimated
Fri 07:09:00 PM 64.8151 -147.8564 180° South  Level Estimated
Fri 07:10:00 PM 64.8151 -147.8564 180° South  Level Estimated
Fri 07:11:00 PM 64.8151 -147.8564 180° South  Level Estimated
Fri 07:12:00 PM 64.8151 -147.8564 180° South  Level Estimated
Fri 07:13:00 PM 64.8151 -147.8564 180° South  Level Estimated
Fri 07:14:00 PM 64.8151 -147.8564 180° South  Level Estimated
Fri 07:15:00 PM 64.8151 -147.8564 180° South  Level Estimated

Login

Don't have an account? Register now (free) for customized features, flight alerts, and more!